createdAt,value
2019-01-25T00:01:30.102Z,66.50
2019-01-25T00:04:00.447Z,58.30
2019-01-25T00:06:30.587Z,57.03
2019-01-25T00:09:00.794Z,65.07
2019-01-25T00:11:30.907Z,66.13
2019-01-25T00:14:01.237Z,58.70
2019-01-25T00:16:31.245Z,52.60
2019-01-25T00:19:01.497Z,57.00
2019-01-25T00:21:31.913Z,58.70
2019-01-25T00:24:02.217Z,48.77
2019-01-25T00:26:32.438Z,56.57
2019-01-25T00:29:02.455Z,57.17
2019-01-25T00:31:32.901Z,49.87
2019-01-25T00:34:03.538Z,47.83
2019-01-25T00:36:33.440Z,57.93
2019-01-25T00:39:04.772Z,56.13
2019-01-25T00:41:34.807Z,59.77
2019-01-25T00:44:05.235Z,58.93
2019-01-25T00:46:35.503Z,54.53
2019-01-25T00:49:05.352Z,63.93
2019-01-25T00:51:35.385Z,59.50
2019-01-25T00:54:05.908Z,57.73
2019-01-25T00:56:36.243Z,55.47
2019-01-25T00:59:06.977Z,52.53
2019-01-25T01:01:37.804Z,57.83
2019-01-25T01:04:08.218Z,60.17
2019-01-25T01:06:39.373Z,55.57
2019-01-25T01:09:09.890Z,55.00
2019-01-25T01:11:40.031Z,71.33
2019-01-25T01:14:10.117Z,64.87
2019-01-25T01:16:40.266Z,64.90
2019-01-25T01:19:10.158Z,66.40
2019-01-25T01:21:40.378Z,56.87
2019-01-25T01:24:09.875Z,65.23
2019-01-25T01:26:40.099Z,76.87
2019-01-25T01:29:10.096Z,65.50
2019-01-25T01:31:58.773Z,67.00
2019-01-25T01:34:29.304Z,63.13
2019-01-25T01:36:59.110Z,59.67
2019-01-25T01:39:31.102Z,63.23
2019-01-25T01:42:01.008Z,60.10
2019-01-25T01:44:31.006Z,62.67
2019-01-25T01:47:00.815Z,57.43
2019-01-25T01:49:30.845Z,60.70
2019-01-25T01:52:01.358Z,64.80
2019-01-25T01:54:31.478Z,60.40
2019-01-25T01:57:01.413Z,63.50
2019-01-25T01:59:33.077Z,62.27
2019-01-25T02:02:02.873Z,67.73
2019-01-25T02:04:32.973Z,61.90
2019-01-25T02:07:03.224Z,62.67
2019-01-25T02:09:33.112Z,57.47
2019-01-25T02:12:03.343Z,67.50
2019-01-25T02:14:34.486Z,59.53
2019-01-25T02:17:06.967Z,63.37
2019-01-25T02:19:37.396Z,64.20
2019-01-25T02:22:07.327Z,61.70
2019-01-25T02:24:37.513Z,61.80
2019-01-25T02:27:08.376Z,60.60
2019-01-25T02:29:38.786Z,56.63
2019-01-25T02:32:08.690Z,64.50
2019-01-25T02:34:39.837Z,66.80
2019-01-25T02:37:19.484Z,68.17
2019-01-25T02:39:53.587Z,67.27
2019-01-25T02:42:26.786Z,56.67
2019-01-25T02:44:56.817Z,61.23
2019-01-25T02:47:27.846Z,59.40
2019-01-25T02:49:58.359Z,61.90
2019-01-25T02:52:29.828Z,63.47
2019-01-25T02:55:00.592Z,72.10
2019-01-25T02:57:31.480Z,61.47
2019-01-25T03:00:02.017Z,61.73
2019-01-25T03:02:32.340Z,63.83
2019-01-25T03:05:02.766Z,72.00
2019-01-25T03:07:33.198Z,64.70
2019-01-25T03:10:03.826Z,75.77
2019-01-25T03:12:33.626Z,65.63
2019-01-25T03:15:03.454Z,69.60
2019-01-25T03:17:33.456Z,71.40
2019-01-25T03:20:03.469Z,69.83
2019-01-25T03:22:34.427Z,73.87
2019-01-25T03:25:04.744Z,69.30
2019-01-25T03:27:34.647Z,67.47
2019-01-25T03:30:06.093Z,75.80
2019-01-25T03:32:36.089Z,73.50
2019-01-25T03:35:10.864Z,75.80
2019-01-25T03:37:41.264Z,69.40
2019-01-25T03:40:12.768Z,77.67
2019-01-25T03:42:42.947Z,77.47
2019-01-25T03:45:13.460Z,69.23
2019-01-25T03:47:43.500Z,67.30
2019-01-25T03:50:14.106Z,75.57
2019-01-25T03:52:44.350Z,74.70
2019-01-25T03:55:14.773Z,107.83
2019-01-25T03:57:44.786Z,82.73
2019-01-25T04:00:15.816Z,126.93
2019-01-25T04:02:45.733Z,72.80
2019-01-25T04:05:15.949Z,72.07
2019-01-25T04:07:45.776Z,78.87
2019-01-25T04:10:17.848Z,79.33
2019-01-25T04:12:47.757Z,79.37
2019-01-25T04:15:18.786Z,83.73
2019-01-25T04:17:48.797Z,78.20
2019-01-25T04:20:18.915Z,90.47
2019-01-25T04:22:48.836Z,86.67
2019-01-25T04:25:19.662Z,82.27
2019-01-25T04:27:49.804Z,77.20
2019-01-25T04:30:20.524Z,83.63
2019-01-25T04:32:52.486Z,81.63
2019-01-25T04:35:22.191Z,82.53
2019-01-25T04:37:52.213Z,81.33
2019-01-25T04:40:22.647Z,82.17
2019-01-25T04:42:52.444Z,82.93
2019-01-25T04:45:22.563Z,80.63
2019-01-25T04:47:52.793Z,75.77
2019-01-25T04:50:23.840Z,82.40
2019-01-25T04:52:54.288Z,80.63
2019-01-25T04:55:25.707Z,88.80
2019-01-25T04:57:55.718Z,74.10
2019-01-25T05:00:25.424Z,84.17
2019-01-25T05:02:57.420Z,78.17
2019-01-25T05:05:29.467Z,75.57
2019-01-25T05:08:03.281Z,93.17
2019-01-25T05:10:33.071Z,80.57
2019-01-25T05:13:02.779Z,73.80
2019-01-25T05:15:33.107Z,76.23
2019-01-25T05:18:03.079Z,80.70
2019-01-25T05:20:33.138Z,70.73
2019-01-25T05:23:03.501Z,65.67
2019-01-25T05:25:33.679Z,67.67
2019-01-25T05:28:09.750Z,72.30
2019-01-25T05:30:42.031Z,67.20
2019-01-25T05:33:12.235Z,76.10
2019-01-25T05:35:43.288Z,69.33
2019-01-25T05:38:13.181Z,72.60
2019-01-25T05:40:42.898Z,68.10
2019-01-25T05:43:12.911Z,68.43
2019-01-25T05:45:44.893Z,72.90
2019-01-25T05:48:15.089Z,69.93
2019-01-25T05:50:45.515Z,66.23
2019-01-25T05:53:20.871Z,66.77
2019-01-25T05:55:52.510Z,65.53
2019-01-25T05:58:22.850Z,63.03
2019-01-25T06:00:52.771Z,75.67
2019-01-25T06:03:22.890Z,67.83
2019-01-25T06:05:54.113Z,68.13
2019-01-25T06:08:44.084Z,68.60
2019-01-25T06:11:15.050Z,74.43
2019-01-25T06:13:45.890Z,82.40
2019-01-25T06:16:16.817Z,74.30
2019-01-25T06:18:47.858Z,67.17
2019-01-25T06:21:17.992Z,65.10
2019-01-25T06:23:48.199Z,70.23
2019-01-25T06:26:19.957Z,72.07
2019-01-25T06:28:56.010Z,69.97
2019-01-25T06:31:28.919Z,66.23
2019-01-25T06:33:59.519Z,71.37
2019-01-25T06:36:33.329Z,62.50
2019-01-25T06:39:07.650Z,64.03
2019-01-25T06:41:43.974Z,62.03
2019-01-25T06:44:09.212Z,66.17
2019-01-25T06:46:39.644Z,64.90
2019-01-25T06:49:10.679Z,64.80
2019-01-25T06:51:40.483Z,63.50
2019-01-25T06:54:10.812Z,68.80
2019-01-25T06:56:43.392Z,65.53
2019-01-25T06:59:16.787Z,62.23
2019-01-25T07:01:51.308Z,69.23
2019-01-25T07:04:21.739Z,64.30
2019-01-25T07:06:51.872Z,72.07
2019-01-25T07:09:21.724Z,69.80
2019-01-25T07:11:52.055Z,65.67
2019-01-25T07:14:22.093Z,71.27
2019-01-25T07:16:52.022Z,75.43
2019-01-25T07:19:22.046Z,70.73
2019-01-25T07:21:51.749Z,71.93
2019-01-25T07:24:21.658Z,68.17
2019-01-25T07:26:51.796Z,73.90
2019-01-25T07:29:22.103Z,74.57
2019-01-25T07:31:52.185Z,69.60
2019-01-25T07:34:22.371Z,67.60
2019-01-25T07:36:52.768Z,71.83
2019-01-25T07:39:26.207Z,74.57
2019-01-25T07:41:59.404Z,76.57
2019-01-25T07:44:27.733Z,79.13
2019-01-25T07:46:57.919Z,76.73
2019-01-25T07:49:28.933Z,81.10
2019-01-25T07:52:01.065Z,80.97
2019-01-25T07:54:32.432Z,77.40
2019-01-25T07:57:02.841Z,72.63
2019-01-25T07:59:32.872Z,76.83
2019-01-25T08:02:05.168Z,78.47
2019-01-25T08:04:35.440Z,75.30
2019-01-25T08:07:05.878Z,73.93
2019-01-25T08:09:37.035Z,77.43
2019-01-25T08:12:08.607Z,76.20
2019-01-25T08:14:38.990Z,78.60
2019-01-25T08:17:09.445Z,68.90
2019-01-25T08:19:39.959Z,68.50
2019-01-25T08:22:10.595Z,72.70
2019-01-25T08:24:41.931Z,73.20
2019-01-25T08:27:14.821Z,71.07
2019-01-25T08:29:45.762Z,72.27
2019-01-25T08:32:15.769Z,70.50
2019-01-25T08:34:47.131Z,70.60
2019-01-25T08:37:17.232Z,65.70
2019-01-25T08:39:47.283Z,78.00
2019-01-25T08:42:18.390Z,74.80
2019-01-25T08:44:49.022Z,73.47
2019-01-25T08:47:21.306Z,67.97
2019-01-25T08:49:57.631Z,62.50
2019-01-25T08:52:23.469Z,76.37
2019-01-25T08:54:53.389Z,64.50
2019-01-25T08:57:23.248Z,71.33
2019-01-25T08:59:53.319Z,81.57
2019-01-25T09:02:23.429Z,66.63
2019-01-25T09:04:53.248Z,74.27
2019-01-25T09:07:23.771Z,74.47
2019-01-25T09:09:53.799Z,65.90
2019-01-25T09:12:24.843Z,74.47
2019-01-25T09:14:55.670Z,75.87
2019-01-25T09:17:26.919Z,77.17
2019-01-25T09:19:57.441Z,77.27
2019-01-25T09:22:27.769Z,70.97
2019-01-25T09:24:57.679Z,70.40
2019-01-25T09:27:27.691Z,74.37
2019-01-25T09:29:58.323Z,80.67
2019-01-25T09:32:28.036Z,64.70
2019-01-25T09:34:58.148Z,71.60
2019-01-25T09:37:28.158Z,79.97
2019-01-25T09:39:57.788Z,78.93
2019-01-25T09:42:31.126Z,80.50
2019-01-25T09:44:58.938Z,83.90
2019-01-25T09:47:29.351Z,80.30
2019-01-25T09:50:18.220Z,76.40
2019-01-25T09:52:49.469Z,74.37
2019-01-25T09:55:20.296Z,82.30
2019-01-25T09:57:52.159Z,76.30
2019-01-25T10:00:41.026Z,84.50
2019-01-25T10:03:11.037Z,82.40
2019-01-25T10:05:41.059Z,82.63
2019-01-25T10:08:10.656Z,84.23
2019-01-25T10:10:40.463Z,95.60
2019-01-25T10:13:12.738Z,83.27
2019-01-25T10:15:42.447Z,90.20
2019-01-25T10:18:12.668Z,85.97
2019-01-25T10:20:42.688Z,93.90
2019-01-25T10:23:12.398Z,95.27
2019-01-25T10:25:43.234Z,100.07
2019-01-25T10:28:13.050Z,94.90
2019-01-25T10:30:43.271Z,101.63
2019-01-25T10:33:13.379Z,94.03
2019-01-25T10:36:01.827Z,89.90
2019-01-25T10:38:32.049Z,96.47
2019-01-25T10:41:02.069Z,87.77
2019-01-25T10:43:31.779Z,89.83
2019-01-25T10:46:01.798Z,88.57
2019-01-25T10:48:32.215Z,90.60
2019-01-25T10:51:02.239Z,89.90
2019-01-25T10:53:33.078Z,85.57
2019-01-25T10:56:05.744Z,83.83
2019-01-25T10:58:36.081Z,91.00
2019-01-25T11:01:05.788Z,82.67
2019-01-25T11:03:35.700Z,87.23
2019-01-25T11:06:06.423Z,86.83
2019-01-25T11:08:36.349Z,82.63
2019-01-25T11:11:06.869Z,92.70
2019-01-25T11:13:38.222Z,82.37
2019-01-25T11:16:11.962Z,86.77
2019-01-25T11:18:40.091Z,87.93
2019-01-25T11:21:11.327Z,88.27
2019-01-25T11:23:41.366Z,86.33
2019-01-25T11:26:11.480Z,83.07
2019-01-25T11:28:42.008Z,89.30
2019-01-25T11:31:12.229Z,83.10
2019-01-25T11:33:42.977Z,84.93
2019-01-25T11:36:12.772Z,79.10
2019-01-25T11:38:44.329Z,81.07
2019-01-25T11:41:14.750Z,85.23
2019-01-25T11:43:44.769Z,89.57
2019-01-25T11:46:14.787Z,76.47
2019-01-25T11:48:44.797Z,83.27
2019-01-25T11:51:14.713Z,82.10
2019-01-25T11:53:44.828Z,76.70
2019-01-25T11:56:14.749Z,82.33
2019-01-25T11:58:44.462Z,87.43
2019-01-25T12:01:14.779Z,84.30
2019-01-25T12:03:44.688Z,87.43
2019-01-25T12:06:14.709Z,89.63
2019-01-25T12:08:44.417Z,88.70
2019-01-25T12:11:14.862Z,95.37
2019-01-25T12:13:44.449Z,85.30
2019-01-25T12:16:14.790Z,86.77
2019-01-25T12:18:44.699Z,86.37
2019-01-25T12:21:16.758Z,93.80
2019-01-25T12:23:47.089Z,82.83
2019-01-25T12:26:16.898Z,89.37
2019-01-25T12:28:49.059Z,96.00
2019-01-25T12:31:19.789Z,94.03
2019-01-25T12:33:50.418Z,87.77
2019-01-25T12:36:21.778Z,97.40
2019-01-25T12:38:53.729Z,100.53
2019-01-25T12:41:24.259Z,100.30
2019-01-25T12:43:54.679Z,94.83
2019-01-25T12:46:29.859Z,98.73
2019-01-25T12:49:00.244Z,99.53
2019-01-25T12:51:43.180Z,95.27
2019-01-25T12:54:28.885Z,100.33
2019-01-25T12:57:20.323Z,91.70
2019-01-25T13:00:03.170Z,99.17
2019-01-25T13:02:24.701Z,101.53
2019-01-25T13:04:54.618Z,115.93
2019-01-25T13:07:25.249Z,119.03
2019-01-25T13:09:55.569Z,107.23
2019-01-25T13:12:25.488Z,99.30
2019-01-25T13:14:56.228Z,106.13
2019-01-25T13:17:26.640Z,105.53
2019-01-25T13:19:56.359Z,102.67
2019-01-25T13:22:26.778Z,90.50
2019-01-25T13:24:56.899Z,92.17
2019-01-25T13:27:28.763Z,96.83
2019-01-25T13:29:58.681Z,95.20
2019-01-25T13:32:47.320Z,107.33
2019-01-25T13:35:17.447Z,98.67
2019-01-25T13:37:52.389Z,100.10
2019-01-25T13:40:23.078Z,99.57
2019-01-25T13:42:53.438Z,85.37
2019-01-25T13:45:24.162Z,85.83
2019-01-25T13:47:55.108Z,89.23
2019-01-25T13:50:26.962Z,93.50
2019-01-25T13:52:57.088Z,100.43
2019-01-25T13:55:28.226Z,105.53
2019-01-25T13:58:03.676Z,103.00
2019-01-25T14:00:35.737Z,99.97
2019-01-25T14:03:08.517Z,95.33
2019-01-25T14:05:41.818Z,91.30
2019-01-25T14:08:12.340Z,102.40
2019-01-25T14:10:43.165Z,111.90
2019-01-25T14:13:16.669Z,100.73
2019-01-25T14:15:46.894Z,96.60
2019-01-25T14:18:17.083Z,103.57
2019-01-25T14:20:47.437Z,103.87
2019-01-25T14:23:17.868Z,117.63
2019-01-25T14:25:47.670Z,106.03
2019-01-25T14:28:17.790Z,110.67
2019-01-25T14:30:47.502Z,119.73
2019-01-25T14:33:20.691Z,127.20
2019-01-25T14:35:51.219Z,138.53
2019-01-25T14:38:21.140Z,127.57
2019-01-25T14:40:51.358Z,123.50
2019-01-25T14:43:22.080Z,125.73
2019-01-25T14:45:52.331Z,121.50
2019-01-25T14:48:22.534Z,121.93
2019-01-25T14:50:52.608Z,120.23
2019-01-25T14:53:22.767Z,108.70
2019-01-25T14:55:52.792Z,130.87
2019-01-25T14:58:23.088Z,127.63
2019-01-25T15:00:53.540Z,125.67
2019-01-25T15:03:24.370Z,129.73
2019-01-25T15:05:53.881Z,127.33
2019-01-25T15:08:25.440Z,107.60
2019-01-25T15:10:55.343Z,106.67
2019-01-25T15:13:28.734Z,124.90
2019-01-25T15:15:58.760Z,109.87
2019-01-25T15:18:38.501Z,114.57
2019-01-25T15:21:09.845Z,95.30
2019-01-25T15:23:41.203Z,102.67
2019-01-25T15:26:13.579Z,98.07
2019-01-25T15:28:48.407Z,98.20
2019-01-25T15:31:23.747Z,121.17
2019-01-25T15:33:57.030Z,137.13
2019-01-25T15:36:28.683Z,123.00
2019-01-25T15:39:00.861Z,127.57
2019-01-25T15:41:34.692Z,117.27
2019-01-25T15:44:14.660Z,105.30
2019-01-25T15:46:45.452Z,93.67
2019-01-25T15:49:19.626Z,82.37
2019-01-25T15:51:51.828Z,83.37
2019-01-25T15:54:26.860Z,76.40
2019-01-25T15:57:20.861Z,78.43
2019-01-25T15:59:54.433Z,87.07
2019-01-25T16:02:25.777Z,94.60
2019-01-25T16:05:02.048Z,75.87
2019-01-25T16:07:32.892Z,95.10
2019-01-25T16:10:02.908Z,94.57
2019-01-25T16:12:36.507Z,97.23
2019-01-25T16:15:19.839Z,85.93
2019-01-25T16:17:53.088Z,85.30
2019-01-25T16:20:23.542Z,86.53
2019-01-25T16:22:56.430Z,85.03
2019-01-25T16:25:29.415Z,90.57
2019-01-25T16:28:03.654Z,98.23
2019-01-25T16:30:41.842Z,106.77
2019-01-25T16:33:21.998Z,105.77
2019-01-25T16:35:59.489Z,94.70
2019-01-25T16:38:32.592Z,108.87
2019-01-25T16:41:03.611Z,103.13
2019-01-25T16:43:36.708Z,88.80
2019-01-25T16:46:09.593Z,93.10
2019-01-25T16:48:45.253Z,90.90
2019-01-25T16:51:18.743Z,98.47
2019-01-25T16:53:51.431Z,97.10
2019-01-25T16:56:52.991Z,111.47
2019-01-25T16:59:23.407Z,97.40
2019-01-25T17:01:57.718Z,92.27
2019-01-25T17:04:45.850Z,100.50
2019-01-25T17:07:20.573Z,82.47
2019-01-25T17:09:53.892Z,81.83
2019-01-25T17:12:24.512Z,101.37
2019-01-25T17:15:05.487Z,87.03
2019-01-25T17:17:36.520Z,103.57
2019-01-25T17:20:08.480Z,98.43
2019-01-25T17:22:41.460Z,98.67
2019-01-25T17:25:17.571Z,88.67
2019-01-25T17:27:51.027Z,99.87
2019-01-25T17:30:28.919Z,121.87
2019-01-25T17:33:00.892Z,104.00
2019-01-25T17:35:33.139Z,100.03
2019-01-25T17:38:10.352Z,97.23
2019-01-25T17:40:46.740Z,89.40
2019-01-25T17:43:19.797Z,91.73
2019-01-25T17:45:51.037Z,80.83
2019-01-25T17:48:21.663Z,79.93
2019-01-25T17:50:53.623Z,78.97
2019-01-25T17:53:27.452Z,79.93
2019-01-25T17:55:58.779Z,77.83
2019-01-25T17:58:32.279Z,89.30
2019-01-25T18:01:04.967Z,84.80
2019-01-25T18:03:41.648Z,75.93
2019-01-25T18:06:15.329Z,82.03
2019-01-25T18:08:49.099Z,88.60
2019-01-25T18:11:20.997Z,89.60
2019-01-25T18:13:53.055Z,80.50
2019-01-25T18:16:28.081Z,81.97
2019-01-25T18:19:00.260Z,85.87
2019-01-25T18:21:35.599Z,97.87
2019-01-25T18:24:12.078Z,92.43
2019-01-25T18:26:48.353Z,97.90
2019-01-25T18:29:27.068Z,107.67
2019-01-25T18:31:58.815Z,100.10
2019-01-25T18:34:30.977Z,110.30
2019-01-25T18:37:02.424Z,103.30
2019-01-25T18:39:36.035Z,119.73
2019-01-25T18:42:08.093Z,110.87
2019-01-25T18:44:45.381Z,103.17
2019-01-25T18:47:18.064Z,101.50
2019-01-25T18:49:50.984Z,100.60
2019-01-25T18:52:22.595Z,117.00
2019-01-25T18:54:56.930Z,113.77
2019-01-25T18:57:42.604Z,111.13
2019-01-25T19:00:16.932Z,101.53
2019-01-25T19:02:52.054Z,106.40
2019-01-25T19:05:31.394Z,106.20
2019-01-25T19:08:09.942Z,105.27
2019-01-25T19:10:42.995Z,105.03
2019-01-25T19:13:22.024Z,106.90
2019-01-25T19:15:57.465Z,96.63
2019-01-25T19:18:37.004Z,109.43
2019-01-25T19:21:11.864Z,95.10
2019-01-25T19:23:45.024Z,107.20
2019-01-25T19:26:22.925Z,111.83
2019-01-25T19:28:54.681Z,103.80
2019-01-25T19:31:30.701Z,104.80
2019-01-25T19:34:03.514Z,100.60
2019-01-25T19:36:35.895Z,98.03
2019-01-25T19:39:11.639Z,101.67
2019-01-25T19:41:46.984Z,97.70
2019-01-25T19:44:18.445Z,106.43
2019-01-25T19:46:50.908Z,97.53
2019-01-25T19:49:23.477Z,103.70
2019-01-25T19:52:00.087Z,103.37
2019-01-25T19:54:31.082Z,108.23
2019-01-25T19:57:03.976Z,95.40
2019-01-25T19:59:35.444Z,96.70
2019-01-25T20:02:08.415Z,101.70
2019-01-25T20:04:41.394Z,92.30
2019-01-25T20:07:17.662Z,86.57
2019-01-25T20:09:53.514Z,104.73
2019-01-25T20:12:28.345Z,94.00
2019-01-25T20:15:01.226Z,92.33
2019-01-25T20:17:33.104Z,90.23
2019-01-25T20:20:05.127Z,95.83
2019-01-25T20:22:38.945Z,96.87
2019-01-25T20:25:10.085Z,99.77
2019-01-25T20:27:41.954Z,88.60
2019-01-25T20:30:22.322Z,91.97
2019-01-25T20:32:54.994Z,93.63
2019-01-25T20:35:30.541Z,96.30
2019-01-25T20:38:01.063Z,96.97
2019-01-25T20:40:32.619Z,108.10
2019-01-25T20:43:06.944Z,106.90
2019-01-25T20:45:40.232Z,114.03
2019-01-25T20:48:16.703Z,121.63
2019-01-25T20:50:46.912Z,112.30
2019-01-25T20:53:30.460Z,127.77
2019-01-25T20:56:02.084Z,136.83
2019-01-25T20:58:36.733Z,126.60
2019-01-25T21:01:11.464Z,117.20
2019-01-25T21:03:44.094Z,134.27
2019-01-25T21:06:19.584Z,149.20
2019-01-25T21:08:50.844Z,174.27
2019-01-25T21:11:21.460Z,168.67
2019-01-25T21:13:56.691Z,162.43
2019-01-25T21:16:30.402Z,163.43
2019-01-25T21:19:04.399Z,197.73
2019-01-25T21:21:35.085Z,200.47
2019-01-25T21:24:05.676Z,160.43
2019-01-25T21:26:35.889Z,148.53
2019-01-25T21:29:09.696Z,144.33
2019-01-25T21:31:42.799Z,123.57
2019-01-25T21:34:14.444Z,108.47
2019-01-25T21:36:44.968Z,93.70
2019-01-25T21:39:15.605Z,94.63
2019-01-25T21:41:46.752Z,107.77
2019-01-25T21:44:17.009Z,98.03
2019-01-25T21:46:47.894Z,106.50
2019-01-25T21:49:17.914Z,114.47
2019-01-25T21:51:48.661Z,116.57
2019-01-25T21:54:20.209Z,111.87
2019-01-25T21:56:52.586Z,121.23
2019-01-25T21:59:25.276Z,137.80
2019-01-25T22:01:55.791Z,142.93
2019-01-25T22:04:26.939Z,132.97
2019-01-25T22:06:57.458Z,127.27
2019-01-25T22:09:29.634Z,122.50
2019-01-25T22:11:59.847Z,116.43
2019-01-25T22:14:30.377Z,116.23
2019-01-25T22:17:01.418Z,118.73
2019-01-25T22:19:31.792Z,107.43
2019-01-25T22:22:02.273Z,111.47
2019-01-25T22:24:51.948Z,109.03
2019-01-25T22:27:22.478Z,116.83
2019-01-25T22:29:53.624Z,98.80
2019-01-25T22:32:30.817Z,111.00
2019-01-25T22:35:02.048Z,105.87
2019-01-25T22:37:32.792Z,99.20
2019-01-25T22:40:03.412Z,99.67
2019-01-25T22:42:34.347Z,104.43
2019-01-25T22:45:04.776Z,110.10
2019-01-25T22:47:34.805Z,106.77
2019-01-25T22:50:05.731Z,111.90
2019-01-25T22:52:36.876Z,110.53
2019-01-25T22:55:09.552Z,103.87
2019-01-25T22:57:40.695Z,114.00
2019-01-25T23:00:17.775Z,101.37
2019-01-25T23:02:47.904Z,86.57
2019-01-25T23:05:29.681Z,94.93
2019-01-25T23:07:59.618Z,98.83
2019-01-25T23:10:29.216Z,90.23
2019-01-25T23:12:58.816Z,105.13
2019-01-25T23:15:28.626Z,101.67
2019-01-25T23:17:58.637Z,91.13
2019-01-25T23:20:28.244Z,88.20
2019-01-25T23:22:57.954Z,99.10
2019-01-25T23:25:28.072Z,89.50
2019-01-25T23:27:57.784Z,86.77
2019-01-25T23:30:28.085Z,95.13
2019-01-25T23:32:58.124Z,92.20
2019-01-25T23:35:27.845Z,97.90
2019-01-25T23:37:57.967Z,91.63
2019-01-25T23:40:27.756Z,88.03
2019-01-25T23:42:57.774Z,92.27
2019-01-25T23:45:28.304Z,89.77
2019-01-25T23:47:58.254Z,94.23
2019-01-25T23:50:28.034Z,96.37
2019-01-25T23:52:58.353Z,90.63
2019-01-25T23:55:28.061Z,87.33
2019-01-25T23:57:58.081Z,88.70
